Time;durP1;ratioP1;P1;durP2;ratioP2;P2;SDS_P1;SDS_P2;PMS_P1;PMS_P2;Temp;Humidity;BMP_temperature;BMP_pressure;BME280_temperature;BME280_humidity;BME280_pressure;Samples;Min_cycle;Max_cycle;Signal;HPM_P1;HPM_P2
2022/05/26 04:57:21;;;;;;;1.00;0.90;;;17.40;78.70;;;;;;5155453;27;20057;-62
2022/05/26 04:59:47;;;;;;;2.45;1.25;;;17.40;78.70;;;;;;5152054;27;20027;-62
2022/05/26 05:02:15;;;;;;;2.65;1.48;;;17.40;78.70;;;;;;5154378;27;20080;-62
2022/05/26 05:04:42;;;;;;;1.20;1.00;;;17.40;78.70;;;;;;5152093;27;20080;-62
2022/05/26 06:39:03;;;;;;;2.17;1.10;;;17.60;79.20;;;;;;5117204;27;20043;-62
2022/05/26 06:44:14;;;;;;;1.13;0.80;;;17.70;79.10;;;;;;5111071;28;20062;-62
2022/05/26 06:46:40;;;;;;;3.85;0.95;;;17.70;79.00;;;;;;5111374;28;20052;-62
2022/05/26 06:49:06;;;;;;;2.28;1.00;;;17.70;79.00;;;;;;5091844;28;20098;-62
2022/05/26 06:51:36;;;;;;;2.50;1.35;;;17.70;78.90;;;;;;5092339;28;20122;-62
2022/05/26 07:22:58;;;;;;;1.30;0.73;;;17.90;79.20;;;;;;5153475;27;20029;-66
2022/05/26 10:09:41;;;;;;;1.55;0.60;;;18.10;79.40;;;;;;5128333;27;20043;-67
2022/05/26 10:56:44;;;;;;;1.95;0.77;;;18.20;79.60;;;;;;5155187;27;20544;-66
2022/05/26 11:00:10;;;;;;;4.57;0.70;;;18.20;79.60;;;;;;5071401;28;20036;-66
2022/05/26 11:10:08;;;;;;;0.77;0.77;;;18.20;79.50;;;;;;5070923;28;20044;-66
2022/05/26 11:12:52;;;;;;;2.92;0.60;;;18.20;79.50;;;;;;5025377;28;20045;-66
2022/05/26 12:06:14;;;;;;;1.58;0.60;;;18.30;79.60;;;;;;5070402;28;20016;-66
2022/05/26 12:08:52;;;;;;;2.50;0.75;;;18.20;79.60;;;;;;5086069;28;20070;-66
2022/05/26 12:11:19;;;;;;;2.70;0.70;;;18.20;79.60;;;;;;5086762;28;20098;-67
2022/05/26 12:14:02;;;;;;;1.67;0.93;;;18.20;79.60;;;;;;5069878;28;20567;-67
2022/05/26 12:16:39;;;;;;;7.53;0.60;;;18.20;79.60;;;;;;5070441;28;20079;-67
2022/05/26 12:19:08;;;;;;;1.50;0.60;;;18.20;79.60;;;;;;5053957;28;20021;-66
2022/05/26 12:21:39;;;;;;;1.40;0.80;;;18.20;79.60;;;;;;5053639;28;20090;-66
2022/05/26 12:24:32;;;;;;;0.70;0.70;;;18.20;79.60;;;;;;5070283;28;20346;-66
2022/05/26 12:27:00;;;;;;;2.35;0.77;;;18.20;79.60;;;;;;5070317;28;20066;-67
2022/05/26 12:29:48;;;;;;;1.05;0.70;;;18.20;79.60;;;;;;5079867;28;20153;-66
2022/05/26 12:32:19;;;;;;;0.60;0.60;;;18.20;79.60;;;;;;5093755;28;20020;-66
2022/05/26 12:35:12;;;;;;;0.70;0.55;;;18.30;79.60;;;;;;5093737;28;20032;-66
2022/05/26 12:38:07;;;;;;;0.50;0.50;;;18.30;79.60;;;;;;5076426;28;20485;-67
2022/05/26 12:44:34;;;;;;;0.50;0.50;;;18.30;79.50;;;;;;5097042;28;20027;-66
2022/05/26 12:47:36;;;;;;;1.38;0.75;;;18.30;79.40;;;;;;5096753;28;20024;-66
2022/05/26 12:50:07;;;;;;;3.00;0.88;;;18.30;79.40;;;;;;5093734;28;20021;-66
2022/05/26 12:52:44;;;;;;;1.65;0.70;;;18.30;79.50;;;;;;5093523;28;20024;-66
2022/05/26 12:55:45;;;;;;;1.70;0.63;;;18.30;79.50;;;;;;5075097;28;20127;-67
2022/05/26 12:58:19;;;;;;;0.60;0.60;;;18.30;79.50;;;;;;5068618;28;20032;-66
2022/05/26 13:00:55;;;;;;;0.70;0.70;;;18.30;79.50;;;;;;5095075;28;20024;-66
2022/05/26 13:03:43;;;;;;;0.93;0.77;;;18.30;79.50;;;;;;5113538;28;20180;-66
2022/05/26 13:06:20;;;;;;;1.95;0.65;;;18.30;80.20;;;;;;5091562;28;20024;-67
2022/05/26 13:08:48;;;;;;;0.60;0.60;;;18.30;79.50;;;;;;5074352;28;20051;-66
2022/05/26 13:11:16;;;;;;;1.98;0.70;;;18.30;79.50;;;;;;5092994;28;20479;-66
2022/05/26 13:16:39;;;;;;;1.97;0.80;;;18.30;79.50;;;;;;5071032;28;20052;-61
2022/05/26 13:19:20;;;;;;;1.38;0.80;;;18.30;79.50;;;;;;5070937;28;20024;-61
2022/05/26 13:21:51;;;;;;;1.77;0.70;;;18.30;79.50;;;;;;5072543;28;20020;-61
2022/05/26 13:24:23;;;;;;;0.65;0.60;;;18.30;79.50;;;;;;5071074;28;20099;-62
2022/05/26 13:26:59;;;;;;;0.90;0.60;;;18.30;79.50;;;;;;5070991;28;20025;-62
2022/05/26 13:29:26;;;;;;;1.90;0.80;;;18.30;79.50;;;;;;5069374;28;20116;-61
2022/05/26 13:34:46;;;;;;;0.70;0.65;;;18.30;79.50;;;;;;5068932;28;20401;-61
2022/05/26 13:37:27;;;;;;;0.68;0.68;;;18.30;79.50;;;;;;5069142;28;20043;-60
2022/05/26 13:40:08;;;;;;;0.70;0.70;;;18.30;79.50;;;;;;5070372;28;20124;-61
2022/05/26 13:42:36;;;;;;;0.80;0.80;;;18.30;79.50;;;;;;5065946;28;20028;-62
2022/05/26 13:45:05;;;;;;;4.32;1.25;;;18.40;79.60;;;;;;5067338;28;20085;-61
2022/05/26 13:47:31;;;;;;;1.60;0.80;;;18.40;79.60;;;;;;5068569;28;20032;-62
2022/05/26 13:50:26;;;;;;;1.50;1.00;;;18.30;79.60;;;;;;5051301;28;20382;-63
2022/05/26 13:52:51;;;;;;;1.10;0.75;;;18.30;79.70;;;;;;5069878;28;20381;-61
2022/05/26 13:55:21;;;;;;;1.10;0.73;;;18.30;79.70;;;;;;5067356;28;20485;-62
2022/05/26 13:57:50;;;;;;;1.55;0.75;;;18.30;79.60;;;;;;5071050;28;20025;-61
2022/05/26 14:00:30;;;;;;;0.55;0.55;;;18.30;79.60;;;;;;5068442;28;20070;-61
2022/05/26 14:02:59;;;;;;;1.23;0.95;;;18.30;79.60;;;;;;5066856;28;20028;-61
2022/05/26 14:05:36;;;;;;;0.90;0.80;;;18.30;79.70;;;;;;5078179;28;20024;-61
2022/05/26 14:08:10;;;;;;;3.20;1.63;;;18.40;78.50;;;;;;5083551;28;20488;-62
2022/05/26 14:10:43;;;;;;;4.53;0.80;;;18.70;76.40;;;;;;5072429;28;20473;-63
2022/05/26 14:13:10;;;;;;;4.50;1.10;;;18.80;75.20;;;;;;5071754;28;20028;-62
2022/05/26 14:15:51;;;;;;;1.10;0.80;;;18.90;75.30;;;;;;5076246;28;20090;-62
2022/05/26 14:18:32;;;;;;;2.63;1.02;;;18.90;75.10;;;;;;5090649;28;20331;-62
2022/05/26 14:21:00;;;;;;;2.67;0.80;;;18.90;75.60;;;;;;5082263;28;20085;-62
2022/05/26 14:23:30;;;;;;;2.80;0.82;;;18.90;75.90;;;;;;5087441;28;20527;-63
2022/05/26 14:26:21;;;;;;;1.30;0.80;;;18.80;75.90;;;;;;5083198;28;20096;-62
2022/05/26 14:28:47;;;;;;;1.00;0.82;;;18.70;75.60;;;;;;5088605;28;20020;-63
2022/05/26 14:31:21;;;;;;;1.92;1.17;;;18.70;75.80;;;;;;5072618;28;20028;-61
2022/05/26 14:34:07;;;;;;;0.82;0.73;;;18.70;75.00;;;;;;5071804;28;20021;-62
2022/05/26 14:36:33;;;;;;;5.32;0.90;;;18.70;74.90;;;;;;5066690;28;20173;-62
2022/05/26 14:38:59;;;;;;;2.28;0.70;;;18.70;75.00;;;;;;5069309;28;20107;-63
2022/05/26 14:41:25;;;;;;;1.23;0.88;;;18.60;75.30;;;;;;5076657;28;20046;-62
2022/05/26 14:44:02;;;;;;;2.55;0.73;;;18.60;75.00;;;;;;5085323;28;20016;-63
2022/05/26 14:46:28;;;;;;;1.63;0.80;;;18.60;75.00;;;;;;5068009;28;20389;-62
2022/05/26 14:48:56;;;;;;;1.67;0.77;;;18.70;75.00;;;;;;5072322;28;20013;-62
2022/05/26 14:51:28;;;;;;;2.70;1.13;;;18.70;75.00;;;;;;5074894;28;20101;-62
2022/05/26 14:56:39;;;;;;;0.68;0.68;;;18.70;75.40;;;;;;5078714;28;20051;-62
2022/05/26 14:59:05;;;;;;;7.85;1.52;;;18.70;75.70;;;;;;5053831;28;20417;-63
2022/05/26 15:01:31;;;;;;;0.80;0.80;;;18.70;75.70;;;;;;5068145;28;20494;-62
2022/05/26 15:03:56;;;;;;;2.65;1.27;;;18.70;75.70;;;;;;5061907;28;20166;-62
2022/05/26 15:06:22;;;;;;;1.73;0.90;;;18.70;76.10;;;;;;5054576;28;20016;-62
2022/05/26 15:08:48;;;;;;;3.88;0.80;;;18.70;76.40;;;;;;5067416;28;20028;-62
2022/05/26 15:11:18;;;;;;;1.20;0.68;;;18.70;76.30;;;;;;5072528;28;20030;-62
2022/05/26 15:13:44;;;;;;;6.13;1.00;;;18.80;76.30;;;;;;5068768;28;20094;-62
2022/05/26 15:16:12;;;;;;;1.33;0.77;;;18.70;76.20;;;;;;5067751;28;20032;-62
2022/05/26 15:18:40;;;;;;;1.38;0.70;;;18.70;76.40;;;;;;5069883;28;20111;-62
2022/05/26 15:21:06;;;;;;;1.10;0.77;;;18.70;76.40;;;;;;5068206;28;20013;-62
2022/05/26 15:23:33;;;;;;;0.75;0.75;;;18.70;76.10;;;;;;5068028;28;20119;-62
2022/05/26 15:26:08;;;;;;;1.00;0.90;;;18.70;76.40;;;;;;5069951;28;20047;-62
2022/05/26 15:28:54;;;;;;;0.85;0.85;;;18.70;76.40;;;;;;5073686;28;20043;-62
2022/05/26 15:31:20;;;;;;;0.70;0.70;;;18.60;76.40;;;;;;5072361;28;20033;-62
2022/05/26 15:33:47;;;;;;;2.55;1.55;;;18.60;76.10;;;;;;5062351;28;20147;-62
2022/05/26 15:36:15;;;;;;;3.22;1.00;;;18.60;76.20;;;;;;5072672;28;20021;-63
2022/05/26 15:38:49;;;;;;;2.28;0.98;;;18.60;76.20;;;;;;5077661;28;20050;-62
2022/05/26 15:41:14;;;;;;;1.38;1.00;;;18.60;76.20;;;;;;5076239;28;20058;-62
2022/05/26 15:43:40;;;;;;;4.68;1.23;;;18.60;76.10;;;;;;5073712;28;20418;-61
2022/05/26 15:46:19;;;;;;;2.53;1.00;;;18.60;76.10;;;;;;5072384;28;20039;-62
2022/05/26 15:48:45;;;;;;;3.22;0.90;;;18.60;76.10;;;;;;5065030;28;20033;-62
2022/05/26 15:51:10;;;;;;;0.80;0.80;;;18.60;76.40;;;;;;5080683;28;20032;-61
2022/05/26 15:53:36;;;;;;;4.95;0.98;;;18.60;76.10;;;;;;5081744;28;20311;-61
2022/05/26 15:59:26;;;;;;;5.75;0.80;;;18.70;76.00;;;;;;4982964;28;20046;-63
2022/05/26 16:01:53;;;;;;;3.28;0.80;;;18.70;75.70;;;;;;5067518;28;20673;-62
2022/05/26 16:38:14;;;;;;;1.15;0.90;;;18.40;77.40;;;;;;4996011;28;20561;-62
2022/05/26 16:40:40;;;;;;;3.38;0.88;;;18.40;77.50;;;;;;4989192;28;20026;-63
2022/05/26 16:43:06;;;;;;;1.55;0.85;;;18.40;77.50;;;;;;4987560;28;20079;-62
2022/05/26 16:45:36;;;;;;;2.53;0.70;;;18.40;77.60;;;;;;5042610;28;20445;-63
2022/05/26 16:48:02;;;;;;;0.85;0.80;;;18.40;77.60;;;;;;5047417;28;20496;-63
2022/05/26 16:50:29;;;;;;;0.90;0.80;;;18.40;78.40;;;;;;5042313;28;20505;-63
2022/05/26 16:52:58;;;;;;;2.25;0.75;;;18.40;77.70;;;;;;5051118;28;20490;-63
2022/05/26 16:55:25;;;;;;;1.48;1.10;;;18.40;77.80;;;;;;5055070;28;20041;-62
2022/05/26 16:57:51;;;;;;;0.70;0.70;;;18.40;77.80;;;;;;5063014;28;20056;-64
2022/05/26 17:00:19;;;;;;;0.93;0.75;;;18.40;77.80;;;;;;5044410;28;20047;-63
2022/05/26 17:02:45;;;;;;;0.85;0.60;;;18.40;77.80;;;;;;5063643;28;20393;-62
2022/05/26 17:05:11;;;;;;;0.70;0.60;;;18.40;77.80;;;;;;5047706;28;20033;-63
2022/05/26 17:07:38;;;;;;;1.98;0.80;;;18.40;77.90;;;;;;5043687;28;20101;-63
2022/05/26 17:10:08;;;;;;;0.63;0.63;;;18.30;77.90;;;;;;5039279;28;20528;-63
2022/05/26 17:20:56;;;;;;;1.15;0.70;;;18.30;78.00;;;;;;5051564;28;20075;-64
2022/05/26 17:23:38;;;;;;;2.80;0.90;;;18.30;78.00;;;;;;5059318;28;20021;-62
2022/05/26 17:26:04;;;;;;;1.75;1.00;;;18.30;78.10;;;;;;5054349;28;20013;-63
2022/05/26 17:28:31;;;;;;;2.22;0.80;;;18.30;78.00;;;;;;5045387;28;20028;-62
2022/05/26 17:30:57;;;;;;;1.27;0.85;;;18.30;78.00;;;;;;5044232;28;20032;-62
2022/05/26 17:47:04;;;;;;;1.30;0.70;;;18.20;78.10;;;;;;4969057;28;20046;-63
2022/05/26 17:49:31;;;;;;;1.58;0.80;;;18.20;78.20;;;;;;4969244;28;20045;-62
2022/05/26 17:52:03;;;;;;;1.77;0.88;;;18.30;78.30;;;;;;4969907;28;20035;-62
2022/05/26 17:54:40;;;;;;;7.28;0.73;;;18.20;78.20;;;;;;4953792;28;20063;-62
2022/05/26 17:57:14;;;;;;;1.42;0.88;;;18.20;78.10;;;;;;4970007;28;20275;-62
2022/05/26 18:02:29;;;;;;;1.13;0.75;;;18.20;78.20;;;;;;4989025;28;20037;-62
2022/05/26 18:04:55;;;;;;;1.13;0.93;;;18.20;78.20;;;;;;4989616;28;20488;-62
2022/05/26 18:07:21;;;;;;;3.33;0.80;;;18.20;78.20;;;;;;4973072;28;20035;-62
2022/05/26 18:09:51;;;;;;;0.63;0.63;;;18.20;78.20;;;;;;4989041;28;20030;-62
2022/05/26 18:12:17;;;;;;;0.98;0.85;;;18.20;78.20;;;;;;4977105;28;20092;-62
2022/05/26 18:14:47;;;;;;;1.30;1.02;;;18.20;78.20;;;;;;5065890;28;20033;-63
2022/05/26 18:17:22;;;;;;;0.80;0.67;;;18.20;78.30;;;;;;5050763;28;20081;-62
2022/05/26 18:19:52;;;;;;;2.22;0.80;;;18.20;78.30;;;;;;5066928;28;20350;-62
2022/05/26 18:22:19;;;;;;;;;;;18.20;78.30;;;;;;5070021;28;20036;-62
2022/05/26 18:24:45;;;;;;;4.32;1.02;;;18.20;78.30;;;;;;5070012;28;19999;-62
2022/05/26 18:27:14;;;;;;;1.85;0.70;;;18.20;78.40;;;;;;5068496;28;20092;-62
2022/05/26 18:29:40;;;;;;;2.33;1.00;;;18.20;78.40;;;;;;5069281;28;20017;-62
2022/05/26 18:32:10;;;;;;;1.27;0.90;;;18.20;78.50;;;;;;5067956;28;20481;-62
2022/05/26 18:34:38;;;;;;;1.42;0.95;;;18.20;78.50;;;;;;5049526;28;20298;-63
2022/05/26 18:37:12;;;;;;;1.30;0.90;;;18.20;78.50;;;;;;5067222;28;20054;-64
2022/05/26 18:39:37;;;;;;;1.10;0.85;;;18.20;78.50;;;;;;5067858;28;20069;-62
2022/05/26 18:42:07;;;;;;;1.80;0.88;;;18.10;78.50;;;;;;5068944;28;20029;-63
2022/05/26 18:44:36;;;;;;;2.72;0.90;;;18.10;78.50;;;;;;5069393;28;20103;-62
2022/05/26 18:47:07;;;;;;;1.57;0.90;;;18.10;78.50;;;;;;5068754;28;20050;-62
2022/05/26 18:49:33;;;;;;;1.77;0.90;;;18.10;78.60;;;;;;5050003;28;20807;-62
2022/05/26 18:52:04;;;;;;;3.38;0.98;;;18.10;78.60;;;;;;5085691;28;20020;-62
2022/05/26 18:54:30;;;;;;;1.15;0.90;;;18.10;78.70;;;;;;5086097;28;20489;-62
2022/05/26 18:56:56;;;;;;;1.92;0.88;;;18.10;78.70;;;;;;5085851;28;20027;-62
2022/05/26 18:59:26;;;;;;;25.20;2.40;;;18.10;78.70;;;;;;5066756;28;20035;-62
2022/05/26 19:01:52;;;;;;;3.17;1.15;;;18.10;78.70;;;;;;5078290;28;20033;-62
2022/05/26 19:04:18;;;;;;;2.45;0.98;;;18.10;78.80;;;;;;5085053;28;20382;-62
2022/05/26 19:06:44;;;;;;;1.10;1.00;;;18.10;78.80;;;;;;5084774;28;20099;-62
2022/05/26 19:09:10;;;;;;;4.72;1.48;;;18.10;78.80;;;;;;5080929;28;20028;-62
2022/05/26 19:11:45;;;;;;;1.88;1.00;;;18.10;78.90;;;;;;5065541;28;20032;-62
2022/05/26 19:14:29;;;;;;;6.45;1.30;;;18.10;78.90;;;;;;5086243;28;20032;-62
2022/05/26 19:17:17;;;;;;;63.38;4.75;;;18.10;78.90;;;;;;5076731;28;20021;-62
2022/05/26 20:35:49;;;;;;;4.43;1.70;;;18.00;79.60;;;;;;5080992;28;20060;-67
2022/05/26 23:22:14;;;;;;;5.28;1.27;;;17.70;79.70;;;;;;5093006;28;20036;-66
